Scorpio — WDF2159 — position and weather

sailwx.info

Track history (hours):
 
Tides and Currents Weather Stations Pressure Air Temp Water Temp Dewpoint Dewpoint Depression Visibility Wind Speed Wind Dir Waves Ship Positions

Scorpio

Owner: San Francisco Bay Area Water Emergency Transportation Authority, San Francisco, CA. More information available from US FCC via Universal Licensing System and Coast Guard Vessel Documentation Center.

Last reported at 2017-Dec-11 17:01 UTC. Time now 2017-Dec-13 01:46 UTC.
Position N 37°40' W 122°23'.

Length 35 m.

Type: Ship (hazmat cat A). MMSI: 367425520.

Date/timePositionNaut miles runAvg speedWind from/ knotsBaromVisibWave heightAir tempDewpointWater temp
2017-Dec-11 17:01N 37°40' W 122°23'816.7
2017-Dec-11 16:30N 37°48' W 122°18'1 1.2
2017-Dec-11 16:01N 37°47' W 122°18'816.9
2017-Dec-11 15:30N 37°40' W 122°22'613.0
2017-Dec-11 15:01N 37°46' W 122°21'3 5.6
2017-Dec-11 14:31N 37°47' W 122°18'5 9.9
2017-Dec-11 14:00N 37°48' W 122°24'  
2017-Dec-09 02:45N 37°48' W 122°24'0 1.5
2017-Dec-09 02:31N 37°48' W 122°23'5 9.9
2017-Dec-09 02:01N 37°48' W 122°17'713.8
2017-Dec-09 01:31N 37°42' W 122°22'2 3.8
2017-Dec-09 01:00N 37°40' W 122°23'816.6
2017-Dec-09 00:31N 37°48' W 122°24'0 0.1
2017-Dec-09 00:00N 37°48' W 122°24'0 0.0
2017-Dec-08 23:30N 37°48' W 122°24'0 0.0
2017-Dec-08 23:00N 37°48' W 122°24'0 0.0
2017-Dec-08 22:30N 37°48' W 122°24'0 0.0
2017-Dec-08 22:00N 37°48' W 122°24'0 0.0
2017-Dec-08 21:30N 37°48' W 122°24'0 0.0
2017-Dec-08 21:00N 37°48' W 122°24'0 0.0
2017-Dec-08 20:30N 37°48' W 122°24'0 0.0
2017-Dec-08 20:00N 37°48' W 122°24'0 0.0
2017-Dec-08 19:30N 37°48' W 122°24'0 0.0
2017-Dec-08 19:00N 37°48' W 122°24'0 0.0
2017-Dec-08 18:30N 37°48' W 122°24'0 0.0
2017-Dec-08 18:00N 37°48' W 122°24'0 0.9
2017-Dec-08 17:31N 37°48' W 122°23'815.8
2017-Dec-08 17:00N 37°40' W 122°23'816.1
2017-Dec-08 16:31N 37°48' W 122°20'2 4.4
2017-Dec-08 16:00N 37°47' W 122°18'917.1
2017-Dec-08 15:30N 37°40' W 122°23'612.5
2017-Dec-08 15:01N 37°46' W 122°21'3 6.5
2017-Dec-08 14:31N 37°47' W 122°18'5 9.8
2017-Dec-08 14:00N 37°48' W 122°24'0 0.0
2017-Dec-08 03:44N 37°48' W 122°24'0 0.0
2017-Dec-08 03:31N 37°48' W 122°24'0 0.0
2017-Dec-08 03:01N 37°48' W 122°24'1 1.7
2017-Dec-08 02:31N 37°49' W 122°23'5 9.0
2017-Dec-08 02:00N 37°48' W 122°17'714.2
2017-Dec-08 01:31N 37°41' W 122°22'2 3.4
2017-Dec-08 01:00N 37°40' W 122°23'816.7
2017-Dec-08 00:30N 37°48' W 122°23'0 0.7
2017-Dec-08 00:00N 37°48' W 122°24'0 0.0
2017-Dec-07 23:30N 37°48' W 122°24'0 0.0
2017-Dec-07 23:00N 37°48' W 122°24'0 0.0
2017-Dec-07 22:30N 37°48' W 122°24'0 0.0
2017-Dec-07 22:00N 37°48' W 122°24'0 0.0
2017-Dec-07 21:30N 37°48' W 122°24'0 0.0
2017-Dec-07 21:00N 37°48' W 122°24'0 0.0
2017-Dec-07 20:30N 37°48' W 122°24'0 0.0
2017-Dec-07 20:00N 37°48' W 122°24'1 1.8
2017-Dec-07 19:30N 37°49' W 122°25'0 0.0
2017-Dec-07 19:00N 37°49' W 122°25'0 0.0
2017-Dec-07 18:30N 37°49' W 122°25'1 2.6
2017-Dec-07 18:00N 37°48' W 122°24'0 0.0
2017-Dec-07 17:30N 37°48' W 122°24'815.9
2017-Dec-07 17:00N 37°40' W 122°23'816.9
2017-Dec-07 16:31N 37°48' W 122°20'2 3.3
2017-Dec-07 16:00N 37°47' W 122°18'714.2
2017-Dec-07 15:31N 37°41' W 122°21'4 7.5
2017-Dec-07 15:01N 37°45' W 122°21'4 8.1
2017-Dec-07 14:30N 37°48' W 122°17'510.2
2017-Dec-07 14:00N 37°48' W 122°24'0 0.0
2017-Dec-07 03:43N 37°48' W 122°24'0 0.0
2017-Dec-07 03:30N 37°48' W 122°24'0 0.0
2017-Dec-07 03:00N 37°48' W 122°24'4 8.5
2017-Dec-07 02:31N 37°48' W 122°19'0 0.9
2017-Dec-07 02:00N 37°47' W 122°18'817.0
2017-Dec-07 01:30N 37°40' W 122°23'0 0.0
2017-Dec-07 01:00N 37°40' W 122°23'816.8
2017-Dec-07 00:30N 37°48' W 122°24'0 0.4
2017-Dec-07 00:00N 37°48' W 122°24'0 0.0
2017-Dec-06 23:30N 37°48' W 122°24'0 0.0
2017-Dec-06 23:00N 37°48' W 122°24'0 0.0
2017-Dec-06 22:30N 37°48' W 122°24'0 0.0
2017-Dec-06 22:00N 37°48' W 122°24'0 0.0
2017-Dec-06 21:30N 37°48' W 122°24'0 0.0
2017-Dec-06 21:00N 37°48' W 122°24'  
2017-Dec-01 22:24N 37°48' W 122°24'0 0.0
2017-Dec-01 22:00N 37°48' W 122°24'0 0.0
2017-Dec-01 21:29N 37°48' W 122°24'0 0.0
2017-Dec-01 21:00N 37°48' W 122°24'0 0.0
2017-Dec-01 20:30N 37°48' W 122°24'0 0.0
2017-Dec-01 20:00N 37°48' W 122°24'0 0.0
2017-Dec-01 19:30N 37°48' W 122°24'0 0.0
2017-Dec-01 19:00N 37°48' W 122°24'0 0.7
2017-Dec-01 18:31N 37°48' W 122°24'1 1.9
2017-Dec-01 18:00N 37°49' W 122°25'1 2.6
2017-Dec-01 17:30N 37°48' W 122°24'  
Track history (hours):
 
Tides and Currents Weather Stations Pressure Air Temp Water Temp Dewpoint Dewpoint Depression Visibility Wind Speed Wind Dir Waves Ship Positions

Scorpio

Owner: San Francisco Bay Area Water Emergency Transportation Authority, San Francisco, CA. More information available from US FCC via Universal Licensing System and Coast Guard Vessel Documentation Center.

Last reported at 2017-Dec-11 17:01 UTC. Time now 2017-Dec-13 01:46 UTC.
Position N 37°40' W 122°23'.

Length 35 m.

Type: Ship (hazmat cat A). MMSI: 367425520.

Date/timePositionNaut miles runAvg speedWind from/ knotsBaromVisibWave heightAir tempDewpointWater temp
2017-Dec-11 17:01N 37°40' W 122°23'816.7
2017-Dec-11 16:30N 37°48' W 122°18'1 1.2
2017-Dec-11 16:01N 37°47' W 122°18'816.9
2017-Dec-11 15:30N 37°40' W 122°22'613.0
2017-Dec-11 15:01N 37°46' W 122°21'3 5.6
2017-Dec-11 14:31N 37°47' W 122°18'5 9.9
2017-Dec-11 14:00N 37°48' W 122°24'  
2017-Dec-09 02:45N 37°48' W 122°24'0 1.5
2017-Dec-09 02:31N 37°48' W 122°23'5 9.9
2017-Dec-09 02:01N 37°48' W 122°17'713.8
2017-Dec-09 01:31N 37°42' W 122°22'2 3.8
2017-Dec-09 01:00N 37°40' W 122°23'816.6
2017-Dec-09 00:31N 37°48' W 122°24'0 0.1
2017-Dec-09 00:00N 37°48' W 122°24'0 0.0
2017-Dec-08 23:30N 37°48' W 122°24'0 0.0
2017-Dec-08 23:00N 37°48' W 122°24'0 0.0
2017-Dec-08 22:30N 37°48' W 122°24'0 0.0
2017-Dec-08 22:00N 37°48' W 122°24'0 0.0
2017-Dec-08 21:30N 37°48' W 122°24'0 0.0
2017-Dec-08 21:00N 37°48' W 122°24'0 0.0
2017-Dec-08 20:30N 37°48' W 122°24'0 0.0
2017-Dec-08 20:00N 37°48' W 122°24'0 0.0
2017-Dec-08 19:30N 37°48' W 122°24'0 0.0
2017-Dec-08 19:00N 37°48' W 122°24'0 0.0
2017-Dec-08 18:30N 37°48' W 122°24'0 0.0
2017-Dec-08 18:00N 37°48' W 122°24'0 0.9
2017-Dec-08 17:31N 37°48' W 122°23'815.8
2017-Dec-08 17:00N 37°40' W 122°23'816.1
2017-Dec-08 16:31N 37°48' W 122°20'2 4.4
2017-Dec-08 16:00N 37°47' W 122°18'917.1
2017-Dec-08 15:30N 37°40' W 122°23'612.5
2017-Dec-08 15:01N 37°46' W 122°21'3 6.5
2017-Dec-08 14:31N 37°47' W 122°18'5 9.8
2017-Dec-08 14:00N 37°48' W 122°24'0 0.0
2017-Dec-08 03:44N 37°48' W 122°24'0 0.0
2017-Dec-08 03:31N 37°48' W 122°24'0 0.0
2017-Dec-08 03:01N 37°48' W 122°24'1 1.7
2017-Dec-08 02:31N 37°49' W 122°23'5 9.0
2017-Dec-08 02:00N 37°48' W 122°17'714.2
2017-Dec-08 01:31N 37°41' W 122°22'2 3.4
2017-Dec-08 01:00N 37°40' W 122°23'816.7
2017-Dec-08 00:30N 37°48' W 122°23'0 0.7
2017-Dec-08 00:00N 37°48' W 122°24'0 0.0
2017-Dec-07 23:30N 37°48' W 122°24'0 0.0
2017-Dec-07 23:00N 37°48' W 122°24'0 0.0
2017-Dec-07 22:30N 37°48' W 122°24'0 0.0
2017-Dec-07 22:00N 37°48' W 122°24'0 0.0
2017-Dec-07 21:30N 37°48' W 122°24'0 0.0
2017-Dec-07 21:00N 37°48' W 122°24'0 0.0
2017-Dec-07 20:30N 37°48' W 122°24'0 0.0
2017-Dec-07 20:00N 37°48' W 122°24'1 1.8
2017-Dec-07 19:30N 37°49' W 122°25'0 0.0
2017-Dec-07 19:00N 37°49' W 122°25'0 0.0
2017-Dec-07 18:30N 37°49' W 122°25'1 2.6
2017-Dec-07 18:00N 37°48' W 122°24'0 0.0
2017-Dec-07 17:30N 37°48' W 122°24'815.9
2017-Dec-07 17:00N 37°40' W 122°23'816.9
2017-Dec-07 16:31N 37°48' W 122°20'2 3.3
2017-Dec-07 16:00N 37°47' W 122°18'714.2
2017-Dec-07 15:31N 37°41' W 122°21'4 7.5
2017-Dec-07 15:01N 37°45' W 122°21'4 8.1
2017-Dec-07 14:30N 37°48' W 122°17'510.2
2017-Dec-07 14:00N 37°48' W 122°24'0 0.0
2017-Dec-07 03:43N 37°48' W 122°24'0 0.0
2017-Dec-07 03:30N 37°48' W 122°24'0 0.0
2017-Dec-07 03:00N 37°48' W 122°24'4 8.5
2017-Dec-07 02:31N 37°48' W 122°19'0 0.9
2017-Dec-07 02:00N 37°47' W 122°18'817.0
2017-Dec-07 01:30N 37°40' W 122°23'0 0.0
2017-Dec-07 01:00N 37°40' W 122°23'816.8
2017-Dec-07 00:30N 37°48' W 122°24'0 0.4
2017-Dec-07 00:00N 37°48' W 122°24'0 0.0
2017-Dec-06 23:30N 37°48' W 122°24'0 0.0
2017-Dec-06 23:00N 37°48' W 122°24'0 0.0
2017-Dec-06 22:30N 37°48' W 122°24'0 0.0
2017-Dec-06 22:00N 37°48' W 122°24'0 0.0
2017-Dec-06 21:30N 37°48' W 122°24'0 0.0
2017-Dec-06 21:00N 37°48' W 122°24'  
2017-Dec-01 22:24N 37°48' W 122°24'0 0.0
2017-Dec-01 22:00N 37°48' W 122°24'0 0.0
2017-Dec-01 21:29N 37°48' W 122°24'0 0.0
2017-Dec-01 21:00N 37°48' W 122°24'0 0.0
2017-Dec-01 20:30N 37°48' W 122°24'0 0.0
2017-Dec-01 20:00N 37°48' W 122°24'0 0.0
2017-Dec-01 19:30N 37°48' W 122°24'0 0.0
2017-Dec-01 19:00N 37°48' W 122°24'0 0.7
2017-Dec-01 18:31N 37°48' W 122°24'1 1.9
2017-Dec-01 18:00N 37°49' W 122°25'1 2.6
2017-Dec-01 17:30N 37°48' W 122°24'  

Dump ship's entire track history